createdAt,value
2018-12-13T00:02:12.684Z,101089.82
2018-12-13T00:04:43.827Z,101092.71
2018-12-13T00:07:17.368Z,101090.27
2018-12-13T00:09:48.848Z,101087.40
2018-12-13T00:12:19.923Z,101086.32
2018-12-13T00:14:49.005Z,101081.57
2018-12-13T00:17:20.054Z,101076.28
2018-12-13T00:19:53.359Z,101079.14
2018-12-13T00:22:24.937Z,101074.59
2018-12-13T00:24:55.982Z,101074.38
2018-12-13T00:27:27.031Z,101068.33
2018-12-13T00:29:57.787Z,101071.77
2018-12-13T00:32:29.059Z,101067.69
2018-12-13T00:34:59.951Z,101067.64
2018-12-13T00:37:31.090Z,101065.06
2018-12-13T00:40:02.143Z,101072.92
2018-12-13T00:42:32.933Z,101076.95
2018-12-13T00:45:04.964Z,101065.81
2018-12-13T00:47:35.979Z,101063.41
2018-12-13T00:50:07.239Z,101057.13
2018-12-13T00:52:38.806Z,101062.16
2018-12-13T00:55:10.029Z,101058.13
2018-12-13T00:57:40.983Z,101053.47
2018-12-13T01:00:12.225Z,101049.50
2018-12-13T01:02:44.011Z,101055.16
2018-12-13T01:05:14.949Z,101061.31
2018-12-13T01:07:45.808Z,101056.42
2018-12-13T01:10:17.071Z,101051.23
2018-12-13T01:12:48.004Z,101054.70
2018-12-13T01:15:18.724Z,101051.52
2018-12-13T01:17:49.683Z,101053.61
2018-12-13T01:20:20.698Z,101060.51
2018-12-13T01:22:52.039Z,101057.69
2018-12-13T01:25:23.391Z,101057.98
2018-12-13T01:27:54.237Z,101067.20
2018-12-13T01:30:27.667Z,101057.82
2018-12-13T01:32:58.933Z,101053.11
2018-12-13T01:35:30.267Z,101055.87
2018-12-13T01:38:01.049Z,101057.60
2018-12-13T01:40:32.127Z,101053.09
2018-12-13T01:43:05.719Z,101049.00
2018-12-13T01:45:37.003Z,101041.33
2018-12-13T01:48:08.211Z,101030.63
2018-12-13T01:50:38.879Z,101029.28
2018-12-13T01:53:09.663Z,101041.59
2018-12-13T01:55:40.671Z,101039.30
2018-12-13T01:58:11.470Z,101041.99
2018-12-13T02:00:42.751Z,101036.83
2018-12-13T02:03:13.904Z,101041.20
2018-12-13T02:05:44.806Z,101037.05
2018-12-13T02:08:18.199Z,101042.12
2018-12-13T02:10:47.607Z,101041.96
2018-12-13T02:13:21.859Z,101038.44
2018-12-13T02:15:53.322Z,101034.61
2018-12-13T02:18:24.919Z,101028.23
2018-12-13T02:20:56.044Z,101027.25
2018-12-13T02:23:29.542Z,101025.73
2018-12-13T02:26:00.935Z,101024.19
2018-12-13T02:28:31.841Z,101022.50
2018-12-13T02:31:02.953Z,101022.63
2018-12-13T02:33:34.083Z,101020.03
2018-12-13T02:36:05.260Z,101013.59
2018-12-13T02:38:36.072Z,101012.53
2018-12-13T02:41:09.324Z,101015.84
2018-12-13T02:43:40.313Z,101009.73
2018-12-13T02:46:11.165Z,101006.59
2018-12-13T02:48:42.383Z,101008.52
2018-12-13T02:51:16.095Z,101012.70
2018-12-13T02:53:47.647Z,101011.25
2018-12-13T02:56:21.964Z,101015.73
2018-12-13T02:58:51.663Z,101021.03
2018-12-13T03:01:23.366Z,101018.29
2018-12-13T03:03:55.407Z,101017.11
2018-12-13T03:06:26.376Z,101006.16
2018-12-13T03:08:58.092Z,101010.45
2018-12-13T03:11:28.937Z,101007.98
2018-12-13T03:13:59.890Z,101008.00
2018-12-13T03:16:30.758Z,101003.67
2018-12-13T03:19:04.445Z,100997.13
2018-12-13T03:21:35.907Z,100995.34
2018-12-13T03:24:07.219Z,100983.20
2018-12-13T03:26:38.194Z,100986.44
2018-12-13T03:29:11.786Z,100981.92
2018-12-13T03:31:42.736Z,100974.73
2018-12-13T03:34:16.145Z,100977.38
2018-12-13T03:36:47.614Z,100983.05
2018-12-13T03:39:18.691Z,100970.27
2018-12-13T03:41:49.961Z,100969.82
2018-12-13T03:44:23.651Z,100967.42
2018-12-13T03:46:55.364Z,100974.98
2018-12-13T03:49:26.973Z,100970.11
2018-12-13T03:51:58.082Z,100966.92
2018-12-13T03:54:29.137Z,100956.34
2018-12-13T03:57:02.892Z,100959.69
2018-12-13T03:59:34.203Z,100956.95
2018-12-13T04:02:05.198Z,100951.75
2018-12-13T04:04:36.307Z,100945.87
2018-12-13T04:07:09.718Z,100942.78
2018-12-13T04:09:41.228Z,100941.73
2018-12-13T04:12:14.643Z,100940.43
2018-12-13T04:14:46.276Z,100934.20
2018-12-13T04:17:17.223Z,100932.47
2018-12-13T04:19:48.171Z,100930.96
2018-12-13T04:22:19.237Z,100934.09
2018-12-13T04:24:50.877Z,100928.00
2018-12-13T04:27:21.908Z,100929.94
2018-12-13T04:29:52.855Z,100932.39
2018-12-13T04:32:24.183Z,100936.97
2018-12-13T04:34:57.460Z,100933.26
2018-12-13T04:37:35.156Z,100936.73
2018-12-13T04:40:01.919Z,100937.23
2018-12-13T04:42:35.597Z,100942.42
2018-12-13T04:45:09.483Z,100944.11
2018-12-13T04:47:44.917Z,100938.05
2018-12-13T04:50:18.551Z,100933.97
2018-12-13T04:52:50.039Z,100930.39
2018-12-13T04:55:23.415Z,100936.66
2018-12-13T04:57:52.639Z,100930.73
2018-12-13T05:00:23.839Z,100932.08
2018-12-13T05:02:54.903Z,100926.17
2018-12-13T05:05:28.472Z,100930.64
2018-12-13T05:07:59.932Z,100935.37
2018-12-13T05:10:49.998Z,100931.30
2018-12-13T05:13:21.795Z,100926.46
2018-12-13T05:15:53.287Z,100925.69
2018-12-13T05:18:26.727Z,100920.23
2018-12-13T05:20:58.033Z,100916.39
2018-12-13T05:23:31.619Z,100921.06
2018-12-13T05:26:03.272Z,100923.00
2018-12-13T05:28:34.291Z,100921.56
2018-12-13T05:31:05.407Z,100915.64
2018-12-13T05:33:36.435Z,100919.13
2018-12-13T05:36:07.529Z,100920.41
2018-12-13T05:38:38.599Z,100925.03
2018-12-13T05:41:09.687Z,100919.51
2018-12-13T05:43:45.438Z,100921.47
2018-12-13T05:46:18.884Z,100919.51
2018-12-13T05:48:51.152Z,100914.11
2018-12-13T05:51:25.095Z,100912.70
2018-12-13T05:53:54.373Z,100917.30
2018-12-13T05:56:25.463Z,100915.64
2018-12-13T05:58:56.402Z,100918.72
2018-12-13T06:01:30.053Z,100918.14
2018-12-13T06:04:01.549Z,100920.16
2018-12-13T06:06:32.332Z,100916.09
2018-12-13T06:09:06.006Z,100916.78
2018-12-13T06:11:37.398Z,100904.63
2018-12-13T06:14:08.381Z,100906.75
2018-12-13T06:16:39.391Z,100909.73
2018-12-13T06:19:10.577Z,100901.72
2018-12-13T06:21:42.319Z,100907.65
2018-12-13T06:24:13.351Z,100905.89
2018-12-13T06:26:44.162Z,100907.16
2018-12-13T06:29:15.051Z,100902.38
2018-12-13T06:31:46.284Z,100892.67
2018-12-13T06:34:17.087Z,100895.52
2018-12-13T06:36:50.483Z,100900.86
2018-12-13T06:39:22.010Z,100902.30
2018-12-13T06:41:52.873Z,100898.25
2018-12-13T06:44:23.801Z,100900.70
2018-12-13T06:46:57.347Z,100901.12
2018-12-13T06:49:28.751Z,100896.00
2018-12-13T06:52:00.471Z,100901.69
2018-12-13T06:54:31.517Z,100906.89
2018-12-13T06:57:02.530Z,100908.97
2018-12-13T06:59:35.947Z,100912.08
2018-12-13T07:02:07.358Z,100913.25
2018-12-13T07:04:41.516Z,100917.00
2018-12-13T07:07:14.987Z,100915.92
2018-12-13T07:09:46.429Z,100920.88
2018-12-13T07:12:20.971Z,100925.45
2018-12-13T07:14:55.147Z,100919.14
2018-12-13T07:17:26.708Z,100920.55
2018-12-13T07:20:00.350Z,100922.05
2018-12-13T07:22:34.672Z,100917.87
2018-12-13T07:25:07.065Z,100920.88
2018-12-13T07:27:38.759Z,100907.32
2018-12-13T07:30:12.192Z,100915.20
2018-12-13T07:32:43.484Z,100917.27
2018-12-13T07:35:16.899Z,100922.05
2018-12-13T07:37:48.407Z,100919.53
2018-12-13T07:40:21.872Z,100924.05
2018-12-13T07:42:54.015Z,100925.66
2018-12-13T07:45:25.461Z,100926.66
2018-12-13T07:47:56.479Z,100926.16
2018-12-13T07:50:27.467Z,100919.53
2018-12-13T07:52:58.615Z,100926.66
2018-12-13T07:55:30.334Z,100922.70
2018-12-13T07:58:03.784Z,100928.60
2018-12-13T08:00:35.069Z,100932.73
2018-12-13T08:03:06.220Z,100927.91
2018-12-13T08:05:40.434Z,100930.66
2018-12-13T08:08:11.754Z,100934.68
2018-12-13T08:10:42.999Z,100928.94
2018-12-13T08:13:13.947Z,100925.06
2018-12-13T08:15:45.680Z,100924.39
2018-12-13T08:18:19.260Z,100920.85
2018-12-13T08:20:50.765Z,100922.16
2018-12-13T08:23:21.751Z,100915.95
2018-12-13T08:25:52.728Z,100918.36
2018-12-13T08:28:23.674Z,100921.92
2018-12-13T08:30:54.480Z,100924.68
2018-12-13T08:33:25.723Z,100930.53
2018-12-13T08:35:56.719Z,100920.80
2018-12-13T08:38:27.720Z,100920.12
2018-12-13T08:40:58.747Z,100920.27
2018-12-13T08:43:29.887Z,100914.81
2018-12-13T08:46:01.019Z,100920.56
2018-12-13T08:48:31.798Z,100920.81
2018-12-13T08:51:03.000Z,100917.66
2018-12-13T08:53:33.712Z,100915.50
2018-12-13T08:56:03.163Z,100921.25
2018-12-13T08:58:34.124Z,100918.48
2018-12-13T09:01:07.992Z,100925.09
2018-12-13T09:03:39.255Z,100913.95
2018-12-13T09:06:10.360Z,100922.92
2018-12-13T09:08:41.357Z,100920.09
2018-12-13T09:11:15.103Z,100922.64
2018-12-13T09:13:46.583Z,100923.69
2018-12-13T09:16:20.580Z,100923.05
2018-12-13T09:18:51.770Z,100920.19
2018-12-13T09:21:27.657Z,100916.45
2018-12-13T09:23:59.099Z,100909.34
2018-12-13T09:26:30.143Z,100916.37
2018-12-13T09:29:00.847Z,100915.64
2018-12-13T09:31:31.891Z,100912.58
2018-12-13T09:34:02.995Z,100909.42
2018-12-13T09:36:33.915Z,100907.03
2018-12-13T09:39:06.698Z,100904.30
2018-12-13T09:41:38.083Z,100897.24
2018-12-13T09:44:14.355Z,100894.39
2018-12-13T09:46:46.401Z,100886.38
2018-12-13T09:49:18.127Z,100886.19
2018-12-13T09:51:49.183Z,100886.08
2018-12-13T09:54:20.872Z,100880.39
2018-12-13T09:56:51.997Z,100866.04
2018-12-13T09:59:22.840Z,100870.48
2018-12-13T10:01:54.179Z,100870.78
2018-12-13T10:04:28.004Z,100861.80
2018-12-13T10:06:59.371Z,100858.73
2018-12-13T10:09:30.315Z,100856.42
2018-12-13T10:12:01.120Z,100853.25
2018-12-13T10:14:32.111Z,100853.46
2018-12-13T10:17:03.315Z,100855.31
2018-12-13T10:19:36.823Z,100857.73
2018-12-13T10:22:11.843Z,100842.02
2018-12-13T10:24:43.436Z,100840.78
2018-12-13T10:27:14.259Z,100832.92
2018-12-13T10:29:45.186Z,100827.53
2018-12-13T10:32:16.075Z,100829.04
2018-12-13T10:34:47.291Z,100821.53
2018-12-13T10:37:19.000Z,100826.03
2018-12-13T10:39:50.170Z,100826.49
2018-12-13T10:42:20.995Z,100821.70
2018-12-13T10:44:52.031Z,100815.06
2018-12-13T10:47:22.900Z,100812.14
2018-12-13T10:52:25.588Z,100808.27
2018-12-13T10:54:56.544Z,100804.58
2018-12-13T10:57:27.503Z,100804.69
2018-12-13T11:00:01.268Z,100797.38
2018-12-13T11:05:43.215Z,100801.81
2018-12-13T11:08:16.771Z,100802.91
2018-12-13T11:10:48.130Z,100807.41
2018-12-13T11:13:19.004Z,100796.00
2018-12-13T11:15:49.707Z,100794.28
2018-12-13T11:18:20.715Z,100789.11
2018-12-13T11:20:51.440Z,100793.68
2018-12-13T11:23:22.697Z,100787.59
2018-12-13T11:25:56.158Z,100788.80
2018-12-13T11:28:43.351Z,100782.85
2018-12-13T11:31:14.905Z,100784.80
2018-12-13T11:33:45.914Z,100787.86
2018-12-13T11:36:17.247Z,100786.95
2018-12-13T11:38:48.611Z,100782.27
2018-12-13T11:41:19.737Z,100783.88
2018-12-13T11:43:50.703Z,100777.60
2018-12-13T11:46:21.736Z,100779.70
2018-12-13T11:48:52.775Z,100773.77
2018-12-13T11:51:23.607Z,100771.16
2018-12-13T11:53:54.795Z,100779.81
2018-12-13T11:56:25.802Z,100769.52
2018-12-13T11:58:56.844Z,100764.84
2018-12-13T12:01:27.991Z,100773.77
2018-12-13T12:03:58.891Z,100773.38
2018-12-13T12:06:32.726Z,100764.43
2018-12-13T12:09:12.230Z,100767.30
2018-12-13T12:11:40.325Z,100771.03
2018-12-13T12:14:11.365Z,100762.86
2018-12-13T12:16:42.707Z,100755.67
2018-12-13T12:19:13.664Z,100759.93
2018-12-13T12:21:45.388Z,100748.98
2018-12-13T12:24:16.869Z,100758.50
2018-12-13T12:26:51.512Z,100744.64
2018-12-13T12:29:25.528Z,100742.84
2018-12-13T12:31:59.297Z,100736.45
2018-12-13T12:34:28.576Z,100736.86
2018-12-13T12:36:59.591Z,100728.46
2018-12-13T12:39:31.317Z,100722.91
2018-12-13T12:42:02.157Z,100735.95
2018-12-13T12:44:37.979Z,100727.80
2018-12-13T12:47:09.948Z,100729.92
2018-12-13T12:49:40.867Z,100729.20
2018-12-13T12:52:14.963Z,100729.33
2018-12-13T12:54:48.476Z,100735.29
2018-12-13T12:57:18.015Z,100730.47
2018-12-13T12:59:49.091Z,100731.13
2018-12-13T13:02:20.026Z,100730.95
2018-12-13T13:04:51.120Z,100724.39
2018-12-13T13:09:55.848Z,100724.48
2018-12-13T13:12:29.711Z,100718.17
2018-12-13T13:15:00.939Z,100724.48
2018-12-13T13:17:32.159Z,100716.28
2018-12-13T13:20:05.998Z,100712.61
2018-12-13T13:22:37.453Z,100717.73
2018-12-13T13:25:08.623Z,100712.92
2018-12-13T13:27:39.681Z,100715.09
2018-12-13T13:30:10.507Z,100716.34
2018-12-13T13:32:41.288Z,100722.69
2018-12-13T13:35:12.302Z,100719.13
2018-12-13T13:37:43.268Z,100717.77
2018-12-13T13:40:14.383Z,100716.09
2018-12-13T13:42:45.550Z,100714.91
2018-12-13T13:45:16.822Z,100711.02
2018-12-13T13:47:48.502Z,100710.34
2018-12-13T13:50:19.559Z,100716.15
2018-12-13T13:52:50.467Z,100709.81
2018-12-13T13:55:24.029Z,100710.77
2018-12-13T13:57:55.043Z,100704.92
2018-12-13T14:00:26.296Z,100711.41
2018-12-13T14:02:57.076Z,100703.85
2018-12-13T14:05:28.282Z,100703.02
2018-12-13T14:07:59.249Z,100709.84
2018-12-13T14:18:03.439Z,100703.53
2018-12-13T14:20:32.687Z,100703.88
2018-12-13T14:23:04.215Z,100711.09
2018-12-13T14:25:38.480Z,100706.06
2018-12-13T14:28:07.783Z,100705.65
2018-12-13T14:30:38.764Z,100712.09
2018-12-13T14:33:10.000Z,100715.03
2018-12-13T14:35:41.299Z,100708.27
2018-12-13T14:38:14.976Z,100708.36
2018-12-13T14:40:46.446Z,100718.50
2018-12-13T14:43:17.323Z,100707.45
2018-12-13T14:45:48.467Z,100709.19
2018-12-13T14:48:19.381Z,100710.89
2018-12-13T14:50:50.263Z,100711.00
2018-12-13T14:53:21.411Z,100720.00
2018-12-13T14:55:50.707Z,100716.48
2018-12-13T14:58:21.753Z,100715.63
2018-12-13T15:00:52.899Z,100723.23
2018-12-13T15:03:23.630Z,100724.18
2018-12-13T15:05:54.655Z,100730.34
2018-12-13T15:08:25.783Z,100729.19
2018-12-13T15:10:56.889Z,100723.48
2018-12-13T15:13:28.133Z,100729.42
2018-12-13T15:15:58.862Z,100730.77
2018-12-13T15:18:32.610Z,100740.47
2018-12-13T15:21:03.952Z,100743.70
2018-12-13T15:23:37.500Z,100753.19
2018-12-13T15:26:08.648Z,100744.41
2018-12-13T15:28:42.424Z,100748.13
2018-12-13T15:31:13.791Z,100744.65
2018-12-13T15:33:47.166Z,100740.94
2018-12-13T15:36:16.696Z,100741.91
2018-12-13T15:38:47.428Z,100746.38
2018-12-13T15:41:18.683Z,100735.16
2018-12-13T15:43:49.742Z,100741.65
2018-12-13T15:46:20.587Z,100736.16
2018-12-13T15:48:54.294Z,100738.34
2018-12-13T15:51:27.655Z,100742.12
2018-12-13T15:53:59.237Z,100750.40
2018-12-13T15:56:30.414Z,100752.55
2018-12-13T15:59:01.245Z,100763.56
2018-12-13T16:01:32.650Z,100766.47
2018-12-13T16:04:03.863Z,100764.25
2018-12-13T16:06:34.932Z,100757.19
2018-12-13T16:09:07.194Z,100754.12
2018-12-13T16:11:38.950Z,100762.39
2018-12-13T16:14:09.774Z,100757.52
2018-12-13T16:16:43.403Z,100757.33
2018-12-13T16:26:49.883Z,100752.92
2018-12-13T16:29:19.099Z,100750.59
2018-12-13T16:31:49.962Z,100741.48
2018-12-13T16:34:20.820Z,100747.89
2018-12-13T16:36:51.735Z,100746.02
2018-12-13T16:39:25.278Z,100739.28
2018-12-13T16:41:54.928Z,100735.44
2018-12-13T16:44:29.119Z,100742.67
2018-12-13T16:47:01.236Z,100746.72
2018-12-13T16:49:32.774Z,100749.79
2018-12-13T16:52:06.547Z,100745.23
2018-12-13T16:54:38.019Z,100745.56
2018-12-13T16:57:08.876Z,100745.75
2018-12-13T16:59:40.119Z,100744.25
2018-12-13T17:02:11.187Z,100740.39
2018-12-13T17:04:44.677Z,100747.60
2018-12-13T17:07:16.084Z,100748.77
2018-12-13T17:09:46.877Z,100748.27
2018-12-13T17:12:18.127Z,100747.79
2018-12-13T17:14:51.451Z,100742.25
2018-12-13T17:17:23.102Z,100736.86
2018-12-13T17:19:54.018Z,100739.38
2018-12-13T17:22:25.286Z,100738.20
2018-12-13T17:24:56.055Z,100738.86
2018-12-13T17:27:27.285Z,100740.76
2018-12-13T17:29:58.151Z,100738.02
2018-12-13T17:32:28.943Z,100742.58
2018-12-13T17:35:03.032Z,100741.56
2018-12-13T17:37:34.284Z,100741.74
2018-12-13T17:40:08.047Z,100737.84
2018-12-13T17:42:39.416Z,100749.31
2018-12-13T17:45:09.291Z,100747.75
2018-12-13T17:47:40.307Z,100752.48
2018-12-13T17:50:13.853Z,100752.34
2018-12-13T17:52:45.075Z,100740.36
2018-12-13T17:55:18.939Z,100752.48
2018-12-13T17:57:52.795Z,100756.20
2018-12-13T18:00:24.404Z,100752.48
2018-12-13T18:02:58.029Z,100758.90
2018-12-13T18:05:32.180Z,100757.23
2018-12-13T18:08:05.631Z,100754.67
2018-12-13T18:10:37.313Z,100756.38
2018-12-13T18:13:08.364Z,100760.42
2018-12-13T18:15:39.252Z,100757.88
2018-12-13T18:18:10.427Z,100760.42
2018-12-13T18:20:41.429Z,100764.11
2018-12-13T18:23:12.667Z,100760.91
2018-12-13T18:25:43.789Z,100754.53
2018-12-13T18:33:15.411Z,100756.06
2018-12-13T18:35:46.562Z,100754.02
2018-12-13T18:38:17.826Z,100758.21
2018-12-13T18:40:49.518Z,100763.59
2018-12-13T18:43:23.383Z,100762.77
2018-12-13T18:45:52.779Z,100763.78
2018-12-13T18:48:26.275Z,100759.73
2018-12-13T18:50:57.664Z,100756.38
2018-12-13T18:53:28.734Z,100769.53
2018-12-13T18:55:59.595Z,100763.97
2018-12-13T18:58:30.692Z,100760.76
2018-12-13T19:01:01.612Z,100764.98
2018-12-13T19:03:32.395Z,100765.13
2018-12-13T19:06:03.614Z,100769.20
2018-12-13T19:08:35.178Z,100772.74
2018-12-13T19:11:07.040Z,100770.38
2018-12-13T19:13:38.076Z,100778.28
2018-12-13T19:16:12.343Z,100779.30
2018-12-13T19:18:44.180Z,100780.50
2018-12-13T19:21:15.659Z,100786.37
2018-12-13T19:23:46.673Z,100790.09
2018-12-13T19:26:22.150Z,100788.55
2018-12-13T19:28:53.528Z,100785.86
2018-12-13T19:33:56.496Z,100788.92
2018-12-13T19:36:27.837Z,100787.72
2018-12-13T19:38:58.976Z,100785.20
2018-12-13T19:41:29.882Z,100776.13
2018-12-13T19:44:03.860Z,100777.30
2018-12-13T19:46:34.881Z,100774.75
2018-12-13T19:49:06.226Z,100773.07
2018-12-13T19:51:37.235Z,100778.31
2018-12-13T19:54:08.554Z,100783.70
2018-12-13T19:56:40.023Z,100779.16
2018-12-13T19:59:11.221Z,100778.13
2018-12-13T20:01:42.073Z,100782.87
2018-12-13T20:04:13.657Z,100783.86
2018-12-13T20:06:45.206Z,100787.24
2018-12-13T20:09:16.735Z,100788.11
2018-12-13T20:11:50.079Z,100786.55
2018-12-13T20:14:24.084Z,100786.58
2018-12-13T20:16:55.579Z,100788.77
2018-12-13T20:19:26.565Z,100786.73
2018-12-13T20:21:57.810Z,100787.59
2018-12-13T20:24:30.562Z,100793.47
2018-12-13T20:27:01.916Z,100789.61
2018-12-13T20:29:35.641Z,100801.23
2018-12-13T20:34:39.358Z,100806.95
2018-12-13T20:37:11.848Z,100814.02
2018-12-13T20:39:43.247Z,100811.32
2018-12-13T20:42:14.389Z,100807.13
2018-12-13T20:44:45.222Z,100808.17
2018-12-13T20:47:18.897Z,100805.95
2018-12-13T20:49:50.399Z,100808.50
2018-12-13T20:52:21.151Z,100807.45
2018-12-13T20:54:52.099Z,100811.67
2018-12-13T20:57:23.232Z,100816.92
2018-12-13T20:59:54.621Z,100814.88
2018-12-13T21:02:28.128Z,100822.61
2018-12-13T21:04:59.339Z,100821.95
2018-12-13T21:07:33.782Z,100825.49
2018-12-13T21:10:08.732Z,100824.30
2018-12-13T21:12:39.783Z,100824.80
2018-12-13T21:15:10.734Z,100820.09
2018-12-13T21:17:41.792Z,100824.16
2018-12-13T21:20:15.399Z,100830.03
2018-12-13T21:22:48.599Z,100833.42
2018-12-13T21:25:22.664Z,100830.40
2018-12-13T21:27:54.004Z,100834.91
2018-12-13T21:30:24.940Z,100834.41
2018-12-13T21:35:27.556Z,100832.91
2018-12-13T21:37:58.713Z,100830.70
2018-12-13T21:40:34.155Z,100834.44
2018-12-13T21:43:05.563Z,100830.72
2018-12-13T21:45:39.211Z,100837.61
2018-12-13T21:48:10.615Z,100829.20
2018-12-13T21:50:41.904Z,100828.36
2018-12-13T21:53:12.789Z,100823.66
2018-12-13T21:55:43.851Z,100820.63
2018-12-13T21:58:14.664Z,100821.79
2018-12-13T22:00:45.882Z,100815.56
2018-12-13T22:03:16.883Z,100822.45
2018-12-13T22:05:48.038Z,100822.16
2018-12-13T22:08:19.115Z,100816.91
2018-12-13T22:10:50.163Z,100815.23
2018-12-13T22:13:21.293Z,100815.41
2018-12-13T22:15:54.823Z,100822.14
2018-12-13T22:18:26.610Z,100812.72
2018-12-13T22:20:57.438Z,100810.02
2018-12-13T22:23:28.251Z,100815.56
2018-12-13T22:25:59.494Z,100823.50
2018-12-13T22:28:30.456Z,100828.53
2018-12-13T22:31:01.570Z,100824.49
2018-12-13T22:36:02.227Z,100828.20
2018-12-13T22:38:33.300Z,100830.06
2018-12-13T22:41:04.691Z,100835.27
2018-12-13T22:43:38.499Z,100838.64
2018-12-13T22:46:10.431Z,100837.33
2018-12-13T22:48:44.130Z,100840.34
2018-12-13T22:51:15.579Z,100844.53
2018-12-13T22:53:46.825Z,100841.84
2018-12-13T22:56:17.783Z,100848.08
2018-12-13T22:58:48.954Z,100838.83
2018-12-13T23:01:20.135Z,100845.72
2018-12-13T23:03:51.898Z,100846.73
2018-12-13T23:06:23.124Z,100845.05
2018-12-13T23:08:56.756Z,100853.31
2018-12-13T23:11:32.669Z,100843.37
2018-12-13T23:14:01.640Z,100842.86
2018-12-13T23:16:32.679Z,100847.44
2018-12-13T23:19:03.631Z,100844.23
2018-12-13T23:21:34.491Z,100840.02
2018-12-13T23:24:05.544Z,100839.34
2018-12-13T23:26:34.767Z,100837.64
2018-12-13T23:29:05.553Z,100841.02
2018-12-13T23:31:36.699Z,100833.95
2018-12-13T23:34:07.775Z,100829.72
2018-12-13T23:36:38.811Z,100832.92
2018-12-13T23:39:09.727Z,100836.66
2018-12-13T23:41:40.876Z,100833.12
2018-12-13T23:44:14.183Z,100835.97
2018-12-13T23:46:47.733Z,100842.53
2018-12-13T23:49:18.479Z,100834.11
2018-12-13T23:51:49.527Z,100835.28
2018-12-13T23:54:21.209Z,100841.37
2018-12-13T23:56:52.846Z,100837.31
2018-12-13T23:59:23.724Z,100840.19
